ID Time Temp Humidity Light PM2.5 PM10 Voltage Extra Firmware Position Fcnt TTN version Gateways Distance RSSI LSNR Radiosettings
2026-05-09 06:49:35 7.9375°C 57.625% 3.27V v255 52.1141 / 5.11475 1693 ttn.v3 3.351km -101 1 867.3MHz, SF9BW125, 4/5CR
- -112 -4.5 867.3MHz, SF9BW125, 4/5CR
2026-05-09 06:33:54 7.8125°C 58.4375% 3.27V v255 52.1141 / 5.11475 1692 ttn.v3 3.351km -107 -8.75 868.1MHz, SF9BW125, 4/5CR
- -121 -11.25 868.1MHz, SF9BW125, 4/5CR
2026-05-09 06:18:13 7.625°C 59% 3.27V v255 52.1141 / 5.11475 1691 ttn.v3 3.351km -107 0.5 867.1MHz, SF9BW125, 4/5CR
2026-05-09 06:02:33 7.5625°C 59.875% 3.27V v255 52.1141 / 5.11475 1690 ttn.v3 3.351km -92 -9 868.5MHz, SF9BW125, 4/5CR
- -112 -10.5 868.5MHz, SF9BW125, 4/5CR
2026-05-09 05:46:52 7.375°C 59.75% 3.27V v255 52.1141 / 5.11475 1689 ttn.v3 3.351km -104 5 867.9MHz, SF9BW125, 4/5CR
- -114 -3 867.9MHz, SF9BW125, 4/5CR
2026-05-09 04:59:50 7.5625°C 58.6875% 3.27V v255 52.1141 / 5.11475 1686 ttn.v3 3.351km -104 -0.5 868.1MHz, SF9BW125, 4/5CR
- -112 -5 868.1MHz, SF9BW125, 4/5CR
2026-05-09 04:44:09 7.8125°C 57.9375% 3.27V v255 52.1141 / 5.11475 1685 ttn.v3 3.351km -95 -7.25 867.5MHz, SF9BW125, 4/5CR
2026-05-09 04:28:28 7.9375°C 57.6875% 3.27V v255 52.1141 / 5.11475 1684 ttn.v3 3.351km -93 -8.5 868.5MHz, SF9BW125, 4/5CR
- -114 -13 868.5MHz, SF9BW125, 4/5CR
2026-05-09 04:12:47 8.0625°C 57.1875% 3.27V v255 52.1141 / 5.11475 1683 ttn.v3 3.351km -89 1.5 867.3MHz, SF9BW125, 4/5CR
- -113 -2 867.3MHz, SF9BW125, 4/5CR
2026-05-09 03:25:44 8.9375°C 54.5625% 3.27V v255 52.1141 / 5.11475 1680 ttn.v3 - -113 -6 868.1MHz, SF9BW125, 4/5CR
3.351km -103 -6.75 868.1MHz, SF9BW125, 4/5CR
2026-05-09 03:10:03 9.125°C 53.875% 3.27V v255 52.1141 / 5.11475 1679 ttn.v3 3.351km -104 5.25 867.9MHz, SF9BW125, 4/5CR
2026-05-09 02:54:22 9.1875°C 53.125% 3.27V v255 52.1141 / 5.11475 1678 ttn.v3 3.351km -93 -8 868.5MHz, SF9BW125, 4/5CR
2026-05-09 02:38:41 9.4375°C 53.4375% 3.27V v255 52.1141 / 5.11475 1677 ttn.v3 3.351km -99 6.75 867.7MHz, SF9BW125, 4/5CR
2026-05-09 01:51:37 9.875°C 52.25% 3.27V v255 52.1141 / 5.11475 1674 ttn.v3 3.351km -99 -5.75 868.1MHz, SF9BW125, 4/5CR
- -115 -7.25 868.1MHz, SF9BW125, 4/5CR
2026-05-09 01:20:14 10.0625°C 51.5625% 3.27V v255 52.1141 / 5.11475 1672 ttn.v3 3.351km -93 -9.5 868.5MHz, SF9BW125, 4/5CR
- -113 -11.25 868.5MHz, SF9BW125, 4/5CR
2026-05-09 01:04:33 10.1875°C 51.3125% 3.27V v255 52.1141 / 5.11475 1671 ttn.v3 3.351km -104 -3 867.1MHz, SF9BW125, 4/5CR
18.452km -120 -13.5 867.1MHz, SF9BW125, 4/5CR
2026-05-09 00:33:10 10.5°C 51.0625% 3.27V v255 52.1141 / 5.11475 1669 ttn.v3 3.351km -103 -1.5 867.9MHz, SF9BW125, 4/5CR
- -116 -6.25 867.9MHz, SF9BW125, 4/5CR
2026-05-09 00:17:29 10.5°C 52.125% 3.27V v255 52.1141 / 5.11475 1668 ttn.v3 - -113 -5.5 868.1MHz, SF9BW125, 4/5CR
2026-05-09 00:01:47 10.75°C 51.9375% 3.27V v255 52.1141 / 5.11475 1667 ttn.v3 3.351km -101 7 867.7MHz, SF9BW125, 4/5CR
2026-05-08 23:46:06 10.8125°C 53% 3.27V v255 52.1141 / 5.11475 1666 ttn.v3 3.351km -92 -10.25 868.5MHz, SF9BW125, 4/5CR
- -115 -12.5 868.5MHz, SF9BW125, 4/5CR
2026-05-08 22:59:01 11.4375°C 51.5625% 3.27V v255 52.1141 / 5.11475 1663 ttn.v3 18.452km -119 -10.8 867.3MHz, SF9BW125, 4/5CR
2026-05-08 22:43:19 11.5°C 51.75% 3.27V v255 52.1141 / 5.11475 1662 ttn.v3 - -111 -5.5 868.1MHz, SF9BW125, 4/5CR
3.351km -103 -6.5 868.1MHz, SF9BW125, 4/5CR
2026-05-08 22:27:37 11.9375°C 54% 3.27V v255 52.1141 / 5.11475 1661 ttn.v3 3.351km -105 1.5 867.1MHz, SF9BW125, 4/5CR
2026-05-08 22:11:55 12.1875°C 69.0625% 3.28V v255 52.1141 / 5.11475 1660 ttn.v3 3.351km -92 -7 868.5MHz, SF9BW125, 4/5CR
- -114 -14 868.5MHz, SF9BW125, 4/5CR
2026-05-08 21:56:13 12.5625°C 78.5% 3.27V v255 52.1141 / 5.11475 1659 ttn.v3 3.351km -103 5 867.9MHz, SF9BW125, 4/5CR
2026-05-08 21:24:49 13.25°C 83.75% 3.28V v255 52.1141 / 5.11475 1657 ttn.v3 3.351km -99 4.75 867.7MHz, SF9BW125, 4/5CR
2026-05-08 21:09:07 13.75°C 82.5% 3.28V v255 52.1141 / 5.11475 1656 ttn.v3 3.351km -107 -3.5 868.1MHz, SF9BW125, 4/5CR
- -112 -5.75 868.1MHz, SF9BW125, 4/5CR
2026-05-08 20:53:24 14.125°C 81.3125% 3.27V v255 52.1141 / 5.11475 1655 ttn.v3 3.351km -87 -9 867.5MHz, SF9BW125, 4/5CR
2026-05-08 20:37:42 14.6875°C 80.125% 3.28V v255 52.1141 / 5.11475 1654 ttn.v3 3.351km -93 -6.75 868.5MHz, SF9BW125, 4/5CR
2026-05-08 20:21:59 15.125°C 79.375% 3.28V v255 52.1141 / 5.11475 1653 ttn.v3 3.351km -107 2.5 867.3MHz, SF9BW125, 4/5CR
- -116 -4.25 867.3MHz, SF9BW125, 4/5CR
2026-05-08 19:50:33 15.875°C 68.9375% 3.28V v255 52.1141 / 5.11475 1651 ttn.v3 3.351km -105 -4.75 867.1MHz, SF9BW125, 4/5CR
- -114 -5.75 867.1MHz, SF9BW125, 4/5CR
2026-05-08 19:19:07 16.3125°C 66.6875% 3.28V v255 52.1141 / 5.11475 1649 ttn.v3 3.351km -105 3.5 867.9MHz, SF9BW125, 4/5CR
- -114 -5.75 867.9MHz, SF9BW125, 4/5CR
2026-05-08 19:03:24 16.625°C 64.3125% 3.28V v255 52.1141 / 5.11475 1648 ttn.v3 3.351km -93 -8 868.5MHz, SF9BW125, 4/5CR
2026-05-08 18:47:41 16.6875°C 64.1875% 3.28V v255 52.1141 / 5.11475 1647 ttn.v3 3.351km -101 4.5 867.7MHz, SF9BW125, 4/5CR
2026-05-08 17:44:48 16.875°C 61.0625% 3.28V v255 52.1141 / 5.11475 1643 ttn.v3 3.351km -99 2 867.3MHz, SF9BW125, 4/5CR
- -117 -6 867.3MHz, SF9BW125, 4/5CR
2026-05-08 17:29:04 17.125°C 57.5% 3.28V v255 52.1141 / 5.11475 1642 ttn.v3 3.351km -93 -7.75 868.5MHz, SF9BW125, 4/5CR
2026-05-08 17:13:21 17.0625°C 61.75% 3.28V v255 52.1141 / 5.11475 1641 ttn.v3 3.351km -104 1.5 867.1MHz, SF9BW125, 4/5CR
2026-05-08 16:41:54 17.4375°C 60.3125% 3.28V v255 52.1141 / 5.11475 1639 ttn.v3 3.351km -105 2.25 867.9MHz, SF9BW125, 4/5CR
2026-05-08 16:26:11 17.5625°C 58.375% 3.28V v255 52.1141 / 5.11475 1638 ttn.v3 - -121 -13 868.1MHz, SF9BW125, 4/5CR
2026-05-08 16:10:27 17.3125°C 60.0625% 3.28V v255 52.1141 / 5.11475 1637 ttn.v3 3.351km -103 -0.75 867.7MHz, SF9BW125, 4/5CR
- -118 -11.75 867.7MHz, SF9BW125, 4/5CR
2026-05-08 15:39:00 17.1875°C 60.375% 3.28V v255 52.1141 / 5.11475 1635 ttn.v3 3.351km -85 -13.75 867.5MHz, SF9BW125, 4/5CR
2026-05-08 15:07:33 17.25°C 61.625% 3.28V v255 52.1141 / 5.11475 1633 ttn.v3 3.351km -91 6.5 867.3MHz, SF9BW125, 4/5CR
2026-05-08 14:53:05 17.25°C 63.875% 3.28V v255 52.1141 / 5.11475 1632 ttn.v3 3.351km -104 -5.75 868.1MHz, SF12BW125, 4/5CR
- -104 -16 868.1MHz, SF12BW125, 4/5CR
2026-05-08 14:20:26 17.6875°C 58.8125% 3.28V v255 52.114 / 5.11475 1630 ttn.v3 3.344km -95 -6.25 868.5MHz, SF9BW125, 4/5CR
- -111 -6.5 868.5MHz, SF9BW125, 4/5CR
2026-05-08 14:04:43 17.6875°C 59% 3.28V v255 52.114 / 5.11475 1629 ttn.v3 3.344km -105 3 867.9MHz, SF9BW125, 4/5CR
2026-05-08 13:33:16 17.875°C 62% 3.28V v255 52.114 / 5.11475 1627 ttn.v3 3.344km -105 1 867.7MHz, SF9BW125, 4/5CR
- -119 -9.25 867.7MHz, SF9BW125, 4/5CR
2026-05-08 12:46:05 18°C 60.25% 3.28V v255 52.114 / 5.11475 1624 ttn.v3 - -112 -9.75 868.5MHz, SF9BW125, 4/5CR
2026-05-08 12:30:21 18.8125°C 58.5% 3.28V v255 52.114 / 5.11475 1623 ttn.v3 3.344km -91 3.75 867.3MHz, SF9BW125, 4/5CR
2026-05-08 11:58:53 18.4375°C 54.125% 3.28V v255 52.114 / 5.11475 1621 ttn.v3 - -118 -2.5 867.1MHz, SF9BW125, 4/5CR
3.344km -108 -6 867.1MHz, SF9BW125, 4/5CR
2026-05-08 11:43:09 18.625°C 54.5625% 3.28V v255 52.114 / 5.11475 1620 ttn.v3 - -112 -7.75 868.1MHz, SF9BW125, 4/5CR
3.344km -107 -9 868.1MHz, SF9BW125, 4/5CR
2026-05-08 11:27:25 18.25°C 54.25% 3.28V v255 52.114 / 5.11475 1619 ttn.v3 3.344km -101 -4 867.9MHz, SF9BW125, 4/5CR
2026-05-08 11:11:42 18°C 54.4375% 3.28V v255 52.114 / 5.11475 1618 ttn.v3 3.344km -93 -7 868.5MHz, SF9BW125, 4/5CR
- -115 -12 868.5MHz, SF9BW125, 4/5CR
2026-05-08 10:55:58 17.8125°C 53.375% 3.28V v255 52.114 / 5.11475 1617 ttn.v3 3.344km -104 0.75 867.7MHz, SF9BW125, 4/5CR
- -113 -2.5 867.7MHz, SF9BW125, 4/5CR
2026-05-08 10:08:50 13.8125°C 49.125% 3.28V v255 52.114 / 5.11475 1614 ttn.v3 - -114 -9.75 868.1MHz, SF9BW125, 4/5CR
3.344km -98 -11 868.1MHz, SF9BW125, 4/5CR
2026-05-08 09:53:07 13.375°C 48.375% 3.28V v255 52.114 / 5.11475 1613 ttn.v3 3.344km -107 -3 867.3MHz, SF9BW125, 4/5CR
- -114 -9.75 867.3MHz, SF9BW125, 4/5CR
2026-05-08 09:37:25 12.5625°C 48.75% 3.28V v255 52.114 / 5.11475 1612 ttn.v3 3.344km -95 -6.5 868.5MHz, SF9BW125, 4/5CR
- -112 -9.25 868.5MHz, SF9BW125, 4/5CR
2026-05-08 09:21:43 12°C 50% 3.28V v255 52.114 / 5.11475 1611 ttn.v3 3.344km -107 -2.25 867.1MHz, SF9BW125, 4/5CR
2026-05-08 08:50:20 11.125°C 50.8125% 3.27V v255 52.114 / 5.11475 1609 ttn.v3 - -113 -1 867.9MHz, SF9BW125, 4/5CR
3.344km -103 -2.25 867.9MHz, SF9BW125, 4/5CR
2026-05-08 08:18:57 10.5°C 51.8125% 3.27V v255 52.114 / 5.11475 1607 ttn.v3 3.344km -103 4 867.7MHz, SF9BW125, 4/5CR
2026-05-08 08:03:15 10.375°C 52.1875% 3.27V v255 52.114 / 5.11475 1606 ttn.v3 3.344km -95 -9 868.5MHz, SF9BW125, 4/5CR
- -113 -11 868.5MHz, SF9BW125, 4/5CR
2026-05-08 07:16:11 9.9375°C 53.25% 3.27V v255 52.114 / 5.11475 1603 ttn.v3 3.344km -103 -3.25 867.3MHz, SF9BW125, 4/5CR
- -115 -4.75 867.3MHz, SF9BW125, 4/5CR
2026-05-08 06:44:48 9.875°C 53.6875% 3.27V v255 52.114 / 5.11475 1601 ttn.v3 - -115 -2.75 867.1MHz, SF9BW125, 4/5CR
3.344km -107 -4.75 867.1MHz, SF9BW125, 4/5CR
2026-05-08 06:29:07 9.8125°C 53.375% 3.27V v255 52.114 / 5.11475 1600 ttn.v3 3.344km -95 -8.5 868.5MHz, SF9BW125, 4/5CR
- -114 -11.25 868.5MHz, SF9BW125, 4/5CR
2026-05-08 06:13:25 9.75°C 52.875% 3.27V v255 52.114 / 5.11475 1599 ttn.v3 3.344km -107 2 867.9MHz, SF9BW125, 4/5CR
2026-05-08 05:42:02 10.0625°C 52.5625% 3.27V v255 52.114 / 5.11475 1597 ttn.v3 3.344km -105 -3 867.7MHz, SF9BW125, 4/5CR
2026-05-08 05:26:21 10.25°C 52.1875% 3.27V v255 52.114 / 5.11475 1596 ttn.v3 3.344km -110 -5.5 868.1MHz, SF9BW125, 4/5CR
- -114 -6.75 868.1MHz, SF9BW125, 4/5CR
2026-05-08 05:10:40 10.3125°C 52.125% 3.27V v255 52.114 / 5.11475 1595 ttn.v3 3.344km -82 -12.5 867.5MHz, SF9BW125, 4/5CR
2026-05-08 04:54:58 10.375°C 52.3125% 3.27V v255 52.114 / 5.11475 1594 ttn.v3 3.344km -93 -6.5 868.5MHz, SF9BW125, 4/5CR
- -112 -9.5 868.5MHz, SF9BW125, 4/5CR
2026-05-08 04:39:16 10.5625°C 52.0625% 3.27V v255 52.114 / 5.11475 1593 ttn.v3 - -113 -1.25 867.3MHz, SF9BW125, 4/5CR
2026-05-08 04:07:53 10.6875°C 53.75% 3.27V v255 52.114 / 5.11475 1591 ttn.v3 3.344km -104 -1 867.1MHz, SF9BW125, 4/5CR
- -116 -1.5 867.1MHz, SF9BW125, 4/5CR
2026-05-08 03:52:12 10.8125°C 54% 3.27V v255 52.114 / 5.11475 1590 ttn.v3 - -112 -4 868.1MHz, SF9BW125, 4/5CR
3.344km -105 -4 868.1MHz, SF9BW125, 4/5CR
2026-05-08 03:36:30 10.875°C 59.25% 3.27V v255 52.114 / 5.11475 1589 ttn.v3 3.344km -105 2.25 867.9MHz, SF9BW125, 4/5CR
- -114 -2.25 867.9MHz, SF9BW125, 4/5CR
2026-05-08 03:20:48 10.9375°C 62.3125% 3.27V v255 52.114 / 5.11475 1588 ttn.v3 3.344km -93 -5.75 868.5MHz, SF9BW125, 4/5CR
- -114 -9.25 868.5MHz, SF9BW125, 4/5CR
2026-05-08 03:05:07 11.125°C 72.125% 3.27V v255 52.114 / 5.11475 1587 ttn.v3 3.344km -99 7.25 867.7MHz, SF9BW125, 4/5CR
- -123 -11.75 867.7MHz, SF9BW125, 4/5CR
2026-05-08 02:49:25 11.3125°C 69.4375% 3.27V v255 52.114 / 5.11475 1586 ttn.v3 3.344km -96 -9 868.3MHz, SF9BW125, 4/5CR
2026-05-08 02:33:43 11.4375°C 76.5% 3.27V v255 52.114 / 5.11475 1585 ttn.v3 3.344km -91 -5.5 867.5MHz, SF9BW125, 4/5CR
2026-05-08 02:02:20 11.6875°C 78.0625% 3.27V v255 52.114 / 5.11475 1583 ttn.v3 3.344km -104 4.5 867.3MHz, SF9BW125, 4/5CR
- -115 -2.75 867.3MHz, SF9BW125, 4/5CR
2026-05-08 01:46:38 11.75°C 82.6875% 3.27V v255 52.114 / 5.11475 1582 ttn.v3 3.344km -93 -9.25 868.5MHz, SF9BW125, 4/5CR
- -114 -10.75 868.5MHz, SF9BW125, 4/5CR
2026-05-08 01:30:56 11.9375°C 82.75% 3.28V v255 52.114 / 5.11475 1581 ttn.v3 3.344km -105 -6.5 867.1MHz, SF9BW125, 4/5CR
- -122 -11.75 867.1MHz, SF9BW125, 4/5CR
2026-05-08 00:59:32 12.125°C 84.25% 3.28V v255 52.114 / 5.11475 1579 ttn.v3 3.344km -104 3.5 867.9MHz, SF9BW125, 4/5CR
2026-05-08 00:43:50 12.1875°C 84.25% 3.27V v255 52.114 / 5.11475 1578 ttn.v3 - -114 -11.75 868.1MHz, SF9BW125, 4/5CR
2026-05-08 00:28:08 12.3125°C 84.4375% 3.28V v255 52.114 / 5.11475 1577 ttn.v3 3.344km -92 5 867.7MHz, SF9BW125, 4/5CR
- -117 -3 867.7MHz, SF9BW125, 4/5CR
2026-05-08 00:12:26 12.4375°C 84.4375% 3.27V v255 52.114 / 5.11475 1576 ttn.v3 - -110 -7.5 868.5MHz, SF9BW125, 4/5CR
3.344km -95 -10.75 868.5MHz, SF9BW125, 4/5CR
2026-05-07 23:56:44 12.5625°C 84.0625% 3.27V v255 52.114 / 5.11475 1575 ttn.v3 3.344km -91 -11 867.5MHz, SF9BW125, 4/5CR
- -112 -13 867.5MHz, SF9BW125, 4/5CR
2026-05-07 23:25:20 12.8125°C 82.5625% 3.28V v255 52.114 / 5.11475 1573 ttn.v3 3.344km -92 -1 867.3MHz, SF9BW125, 4/5CR
- -112 -3.5 867.3MHz, SF9BW125, 4/5CR
2026-05-07 23:09:38 12.9375°C 81.4375% 3.27V v255 52.114 / 5.11475 1572 ttn.v3 - -110 -1 868.1MHz, SF9BW125, 4/5CR
3.344km -107 -2.25 868.1MHz, SF9BW125, 4/5CR
2026-05-07 22:53:56 13.125°C 78.8125% 3.28V v255 52.114 / 5.11475 1571 ttn.v3 - -115 0.75 867.1MHz, SF9BW125, 4/5CR
3.344km -107 0.5 867.1MHz, SF9BW125, 4/5CR
2026-05-07 22:38:13 13.25°C 79.0625% 3.28V v255 52.114 / 5.11475 1570 ttn.v3 3.344km -93 -6.75 868.5MHz, SF9BW125, 4/5CR
- -116 -11.75 868.5MHz, SF9BW125, 4/5CR
2026-05-07 22:22:31 13.4375°C 77.3125% 3.28V v255 52.114 / 5.11475 1569 ttn.v3 3.344km -104 1 867.9MHz, SF9BW125, 4/5CR
- -114 -4.75 867.9MHz, SF9BW125, 4/5CR
2026-05-07 21:51:06 13.75°C 73.5% 3.28V v255 52.114 / 5.11475 1567 ttn.v3 3.344km -103 5 867.7MHz, SF9BW125, 4/5CR
- -120 -9.25 867.7MHz, SF9BW125, 4/5CR
2026-05-07 21:35:24 13.875°C 73.75% 3.28V v255 52.114 / 5.11475 1566 ttn.v3 - -112 -3.5 868.1MHz, SF9BW125, 4/5CR
2026-05-07 21:19:41 14.0625°C 71.6875% 3.28V v255 52.114 / 5.11475 1565 ttn.v3 3.344km -87 -12 867.5MHz, SF9BW125, 4/5CR
2026-05-07 21:03:59 14.25°C 71.9375% 3.28V v255 52.114 / 5.11475 1564 ttn.v3 3.344km -93 -8 868.5MHz, SF9BW125, 4/5CR
2026-05-07 20:01:09 14.875°C 69.625% 3.28V v255 52.114 / 5.11475 1560 ttn.v3 3.344km -104 -7 868.1MHz, SF9BW125, 4/5CR
- -113 -9.75 868.1MHz, SF9BW125, 4/5CR
2026-05-07 19:29:43 15.0625°C 67.875% 3.28V v255 52.114 / 5.11475 1558 ttn.v3 - -115 -12.5 868.5MHz, SF9BW125, 4/5CR
2026-05-07 19:14:00 15.1875°C 67.8125% 3.28V v255 52.114 / 5.11475 1557 ttn.v3 3.344km -101 4.5 867.7MHz, SF9BW125, 4/5CR
2026-05-07 18:42:35 15.4375°C 61.4375% 3.28V v255 52.114 / 5.11475 1555 ttn.v3 3.344km -91 -9.5 867.5MHz, SF9BW125, 4/5CR
2026-05-07 18:26:52 15.6875°C 63.4375% 3.28V v255 52.114 / 5.11475 1554 ttn.v3 - -113 -10.5 868.1MHz, SF9BW125, 4/5CR
2026-05-07 17:55:25 16.625°C 60.75% 3.28V v255 52.114 / 5.11475 1552 ttn.v3 3.344km -92 -7 868.5MHz, SF9BW125, 4/5CR
- -112 -8.25 868.5MHz, SF9BW125, 4/5CR
2026-05-07 17:39:42 17.375°C 54.9375% 3.28V v255 52.114 / 5.11475 1551 ttn.v3 3.344km -107 -0.5 867.1MHz, SF9BW125, 4/5CR
2026-05-07 17:08:15 17.0625°C 56.625% 3.28V v255 52.114 / 5.11475 1549 ttn.v3 3.344km -104 1.75 867.9MHz, SF9BW125, 4/5CR
- -117 -6.5 867.9MHz, SF9BW125, 4/5CR
2026-05-07 16:52:32 16.875°C 58.375% 3.28V v255 52.114 / 5.11475 1548 ttn.v3 3.344km -105 3.75 868.1MHz, SF9BW125, 4/5CR
- -114 -4 868.1MHz, SF9BW125, 4/5CR
2026-05-07 16:36:49 16.5625°C 57.125% 3.28V v255 52.114 / 5.11475 1547 ttn.v3 3.344km -107 -3 867.7MHz, SF9BW125, 4/5CR
2026-05-07 16:21:05 16.5625°C 58.5625% 3.28V v255 52.114 / 5.11475 1546 ttn.v3 3.344km -93 -5.75 868.5MHz, SF9BW125, 4/5CR
2026-05-07 15:49:39 17.125°C 56.625% 3.28V v255 52.114 / 5.11475 1544 ttn.v3 3.344km -91 -9.25 868.3MHz, SF9BW125, 4/5CR
2026-05-07 15:33:55 17.75°C 54% 3.28V v255 52.114 / 5.11475 1543 ttn.v3 3.344km -107 -3.25 867.3MHz, SF9BW125, 4/5CR
- -118 -5.75 867.3MHz, SF9BW125, 4/5CR
2026-05-07 15:18:12 17.6875°C 54.6875% 3.28V v255 52.114 / 5.11475 1542 ttn.v3 3.344km -96 1.75 868.1MHz, SF9BW125, 4/5CR
- -115 -3.25 868.1MHz, SF9BW125, 4/5CR
2026-05-07 15:02:28 18.8125°C 51.875% 3.28V v255 52.114 / 5.11475 1541 ttn.v3 3.344km -104 -0.75 867.1MHz, SF9BW125, 4/5CR
2026-05-07 14:46:43 20.75°C 47.6875% 3.28V v255 52.114 / 5.11475 1540 ttn.v3 3.344km -93 -4.5 868.5MHz, SF9BW125, 4/5CR
- -115 -10.5 868.5MHz, SF9BW125, 4/5CR
2026-05-07 14:30:59 21.3125°C 48.25% 3.28V v255 52.114 / 5.11475 1539 ttn.v3 3.344km -103 4.5 867.9MHz, SF9BW125, 4/5CR
- -116 -5 867.9MHz, SF9BW125, 4/5CR
- -128 -13.25 867.9MHz, SF9BW125, 4/5CR
2026-05-07 13:59:30 20.875°C 48.25% 3.28V v255 52.114 / 5.11475 1537 ttn.v3 3.344km -103 6.25 867.7MHz, SF9BW125, 4/5CR
- -123 -12.25 867.7MHz, SF9BW125, 4/5CR
2026-05-07 13:45:12 20°C 53.125% 3.28V v255 52.114 / 5.11475 1536 ttn.v3 3.344km -96 -0.5 868.1MHz, SF12BW125, 4/5CR
- -116 -8.75 868.1MHz, SF12BW125, 4/5CR
- -133 -17 868.1MHz, SF12BW125, 4/5CR
2026-05-07 13:12:22 17.625°C 57.625% 3.28V v255 No position 1534 ttn.v3 - -92 -8.75 868.5MHz, SF9BW125, 4/5CR
- -111 -10.25 868.5MHz, SF9BW125, 4/5CR
2026-05-07 12:40:55 16.4375°C 60.375% 3.28V v255 No position 1532 ttn.v3 - -87 -9 868.3MHz, SF9BW125, 4/5CR
2026-05-07 12:25:12 16.6875°C 58.25% 3.28V v255 No position 1531 ttn.v3 - -104 -0.5 867.1MHz, SF9BW125, 4/5CR
- -117 -7.25 867.1MHz, SF9BW125, 4/5CR
2026-05-07 11:53:44 19.4375°C 51.5% 3.28V v255 No position 1529 ttn.v3 - -104 1.75 867.9MHz, SF9BW125, 4/5CR
2026-05-07 11:38:00 19°C 53.5625% 3.28V v255 No position 1528 ttn.v3 - -93 -4 868.5MHz, SF9BW125, 4/5CR
- -113 -7.75 868.5MHz, SF9BW125, 4/5CR
2026-05-07 11:22:16 19.1875°C 55.3125% 3.28V v255 No position 1527 ttn.v3 - -103 5 867.7MHz, SF9BW125, 4/5CR
2026-05-07 10:50:48 18.0625°C 60.0625% 3.28V v255 No position 1525 ttn.v3 - -85 -9.75 867.5MHz, SF9BW125, 4/5CR
2026-05-07 10:03:37 16.1875°C 55.8125% 3.28V v255 No position 1522 ttn.v3 - -92 -4.75 868.5MHz, SF9BW125, 4/5CR
- -112 -7.75 868.5MHz, SF9BW125, 4/5CR
2026-05-07 09:47:54 15.3125°C 54.1875% 3.28V v255 No position 1521 ttn.v3 - -102 -8.75 867.1MHz, SF9BW125, 4/5CR
2026-05-07 09:16:29 12.6875°C 51.1875% 3.28V v255 No position 1519 ttn.v3 - -103 6 867.9MHz, SF9BW125, 4/5CR
- -113 -1.25 867.9MHz, SF9BW125, 4/5CR
- -130 -14.75 867.9MHz, SF9BW125, 4/5CR
2026-05-07 09:00:47 11.625°C 49.8125% 3.27V v255 No position 1518 ttn.v3 - -98 1 868.1MHz, SF9BW125, 4/5CR
- -115 -9.25 868.1MHz, SF9BW125, 4/5CR
2026-05-07 08:29:24 9.4375°C 51.375% 3.27V v255 No position 1516 ttn.v3 - -93 -4.75 868.5MHz, SF9BW125, 4/5CR
- -112 -8.5 868.5MHz, SF9BW125, 4/5CR
2026-05-07 07:42:21 8.3125°C 54% 3.27V v255 No position 1513 ttn.v3 - -105 -0.25 867.3MHz, SF9BW125, 4/5CR
- -112 -10.25 867.3MHz, SF9BW125, 4/5CR
2026-05-07 07:26:40 8.0625°C 54.8125% 3.27V v255 No position 1512 ttn.v3 - -99 -5.75 868.1MHz, SF9BW125, 4/5CR
- -113 -7.75 868.1MHz, SF9BW125, 4/5CR
2026-05-07 06:55:19 8°C 55.6875% 3.27V v255 No position 1510 ttn.v3 - -95 -6.5 868.5MHz, SF9BW125, 4/5CR
- -114 -11 868.5MHz, SF9BW125, 4/5CR
2026-05-07 06:39:38 7.75°C 56% 3.27V v255 No position 1509 ttn.v3 - -105 4.25 867.9MHz, SF9BW125, 4/5CR
- -115 -3 867.9MHz, SF9BW125, 4/5CR
2026-05-07 05:36:54 7.1875°C 55.875% 3.27V v255 No position 1505 ttn.v3 - -87 -13.25 867.5MHz, SF9BW125, 4/5CR
2026-05-07 05:21:13 7.1875°C 55.4375% 3.27V v255 No position 1504 ttn.v3 - -93 -5.25 868.5MHz, SF9BW125, 4/5CR
2026-05-07 05:05:33 7.1875°C 55.125% 3.27V v255 No position 1503 ttn.v3 - -99 4.25 867.3MHz, SF9BW125, 4/5CR
- -113 -1.5 867.3MHz, SF9BW125, 4/5CR
2026-05-07 04:34:11 7.3125°C 54.5625% 3.27V v255 No position 1501 ttn.v3 - -104 -1 867.1MHz, SF9BW125, 4/5CR
- -117 -5.25 867.1MHz, SF9BW125, 4/5CR
2026-05-07 04:18:30 7.4375°C 54.0625% 3.27V v255 No position 1500 ttn.v3 - -104 0.5 868.1MHz, SF9BW125, 4/5CR
- -115 -8.75 868.1MHz, SF9BW125, 4/5CR
2026-05-07 04:02:49 7.6875°C 53.25% 3.27V v255 No position 1499 ttn.v3 - -104 6.25 867.9MHz, SF9BW125, 4/5CR
- -115 -0.25 867.9MHz, SF9BW125, 4/5CR
- -131 -14.75 867.9MHz, SF9BW125, 4/5CR
2026-05-07 03:47:08 8°C 52.6875% 3.27V v255 No position 1498 ttn.v3 - -93 -6 868.5MHz, SF9BW125, 4/5CR
- -111 -9.5 868.5MHz, SF9BW125, 4/5CR
2026-05-07 03:31:27 8.3125°C 53.0625% 3.27V v255 No position 1497 ttn.v3 - -99 2 867.7MHz, SF9BW125, 4/5CR
- -116 -5.25 867.7MHz, SF9BW125, 4/5CR
2026-05-07 03:15:46 8.5°C 63.5625% 3.27V v255 No position 1496 ttn.v3 - -91 -8.25 868.3MHz, SF9BW125, 4/5CR
2026-05-07 03:00:05 8.6875°C 69.0625% 3.27V v255 No position 1495 ttn.v3 - -91 -9.25 867.5MHz, SF9BW125, 4/5CR
- -112 -11.25 867.5MHz, SF9BW125, 4/5CR
2026-05-07 02:44:24 8.75°C 65.625% 3.27V v255 No position 1494 ttn.v3 - -104 -2 868.1MHz, SF9BW125, 4/5CR
- -118 -12 868.1MHz, SF9BW125, 4/5CR
2026-05-07 02:28:42 8.8125°C 70.625% 3.27V v255 No position 1493 ttn.v3 - -98 -3.75 867.3MHz, SF9BW125, 4/5CR
- -113 -7 867.3MHz, SF9BW125, 4/5CR
2026-05-07 02:13:01 9.0625°C 72.6875% 3.27V v255 No position 1492 ttn.v3 - -95 -6 868.5MHz, SF9BW125, 4/5CR
- -112 -7.5 868.5MHz, SF9BW125, 4/5CR
2026-05-07 01:57:20 9.3125°C 82.875% 3.27V v255 No position 1491 ttn.v3 - -105 -1.25 867.1MHz, SF9BW125, 4/5CR
2026-05-07 01:25:57 10.0625°C 84.4375% 3.27V v255 No position 1489 ttn.v3 - -105 5.75 867.9MHz, SF9BW125, 4/5CR
- -113 1 867.9MHz, SF9BW125, 4/5CR
2026-05-07 01:10:15 10.375°C 84.5625% 3.27V v255 No position 1488 ttn.v3 - -114 -12.25 868.1MHz, SF9BW125, 4/5CR
2026-05-07 00:54:33 10.625°C 84.875% 3.27V v255 No position 1487 ttn.v3 - -101 0 867.7MHz, SF9BW125, 4/5CR
2026-05-07 00:38:52 10.8125°C 84.3125% 3.27V v255 No position 1486 ttn.v3 - -95 -5.25 868.5MHz, SF9BW125, 4/5CR
- -112 -9.25 868.5MHz, SF9BW125, 4/5CR
2026-05-07 00:07:29 11.125°C 82.875% 3.27V v255 No position 1484 ttn.v3 - -91 -8.25 868.3MHz, SF9BW125, 4/5CR
2026-05-06 23:51:47 11.1875°C 82% 3.27V v255 No position 1483 ttn.v3 - -101 3 867.3MHz, SF9BW125, 4/5CR
- -112 -1 867.3MHz, SF9BW125, 4/5CR
2026-05-06 23:36:05 11.3125°C 80.625% 3.27V v255 No position 1482 ttn.v3 - -94 -10.5 868.1MHz, SF9BW125, 4/5CR
- -111 -13 868.1MHz, SF9BW125, 4/5CR
2026-05-06 23:20:23 11.4375°C 80.125% 3.27V v255 No position 1481 ttn.v3 - -105 0.5 867.1MHz, SF9BW125, 4/5CR
- -116 -2.75 867.1MHz, SF9BW125, 4/5CR
2026-05-06 23:04:42 11.5°C 77.9375% 3.28V v255 No position 1480 ttn.v3 - -112 -6.25 868.5MHz, SF9BW125, 4/5CR
- -95 -8 868.5MHz, SF9BW125, 4/5CR
2026-05-06 22:49:00 11.6875°C 77.1875% 3.27V v255 No position 1479 ttn.v3 - -103 1 867.9MHz, SF9BW125, 4/5CR
- -112 -0.5 867.9MHz, SF9BW125, 4/5CR
- -130 -14.25 867.9MHz, SF9BW125, 4/5CR
2026-05-06 22:33:18 11.8125°C 76.875% 3.27V v255 No position 1478 ttn.v3 - -97 -7.25 868.3MHz, SF9BW125, 4/5CR
2026-05-06 22:17:36 12.0625°C 79.0625% 3.27V v255 No position 1477 ttn.v3 - -101 3.5 867.7MHz, SF9BW125, 4/5CR
- -114 -0.5 867.7MHz, SF9BW125, 4/5CR
2026-05-06 22:01:54 12.1875°C 81.125% 3.28V v255 No position 1476 ttn.v3 - -96 -2.75 868.1MHz, SF9BW125, 4/5CR
- -112 -3.5 868.1MHz, SF9BW125, 4/5CR
2026-05-06 21:30:30 12.5625°C 78.375% 3.27V v255 No position 1474 ttn.v3 - -92 -6.75 868.5MHz, SF9BW125, 4/5CR
- -114 -12 868.5MHz, SF9BW125, 4/5CR
2026-05-06 21:14:48 12.625°C 71.3125% 3.27V v255 No position 1473 ttn.v3 - -95 2.25 867.3MHz, SF9BW125, 4/5CR
- -113 -2.5 867.3MHz, SF9BW125, 4/5CR
- -117 -12.5 867.3MHz, SF9BW125, 4/5CR
2026-05-06 20:43:24 12.8125°C 67.875% 3.28V v255 No position 1471 ttn.v3 - -105 -6.75 867.1MHz, SF9BW125, 4/5CR
2026-05-06 20:27:41 12.875°C 67.9375% 3.28V v255 No position 1470 ttn.v3 - -112 -8.25 868.1MHz, SF9BW125, 4/5CR
2026-05-06 20:11:59 13.0625°C 67% 3.28V v255 No position 1469 ttn.v3 - -105 2.5 867.9MHz, SF9BW125, 4/5CR
- -111 -1.75 867.9MHz, SF9BW125, 4/5CR
2026-05-06 19:40:34 13.5625°C 63.875% 3.28V v255 No position 1467 ttn.v3 - -97 2.5 867.7MHz, SF9BW125, 4/5CR
- -117 -5.25 867.7MHz, SF9BW125, 4/5CR
2026-05-06 18:53:27 14.0625°C 63.8125% 3.28V v255 No position 1464 ttn.v3 - -102 -3 868.1MHz, SF9BW125, 4/5CR
- -117 -4.75 868.1MHz, SF9BW125, 4/5CR
2026-05-06 18:37:44 14.1875°C 62.9375% 3.28V v255 No position 1463 ttn.v3 - -96 -4 867.3MHz, SF9BW125, 4/5CR
- -115 -7.25 867.3MHz, SF9BW125, 4/5CR
2026-05-06 18:22:01 14.1875°C 61.8125% 3.28V v255 No position 1462 ttn.v3 - -95 -8 868.5MHz, SF9BW125, 4/5CR
- -113 -12.75 868.5MHz, SF9BW125, 4/5CR
2026-05-06 18:06:19 14.3125°C 59.9375% 3.28V v255 No position 1461 ttn.v3 - -109 0.75 867.1MHz, SF9BW125, 4/5CR
- -116 -0.25 867.1MHz, SF9BW125, 4/5CR
2026-05-06 17:34:53 14.8125°C 62.3125% 3.28V v255 No position 1459 ttn.v3 - -103 4.75 867.9MHz, SF9BW125, 4/5CR
- -113 -0.75 867.9MHz, SF9BW125, 4/5CR
2026-05-06 17:19:11 14.6875°C 61.8125% 3.28V v255 No position 1458 ttn.v3 - -115 -4.5 868.1MHz, SF9BW125, 4/5CR
- -109 -5 868.1MHz, SF9BW125, 4/5CR
2026-05-06 17:03:28 14.5625°C 62.75% 3.28V v255 No position 1457 ttn.v3 - -102 3.5 867.7MHz, SF9BW125, 4/5CR
- -114 0.25 867.7MHz, SF9BW125, 4/5CR
- -129 -14 867.7MHz, SF9BW125, 4/5CR
2026-05-06 16:16:20 14°C 59.0625% 3.28V v255 No position 1454 ttn.v3 - -109 -15 868.3MHz, SF9BW125, 4/5CR
2026-05-06 16:00:38 14°C 61.0625% 3.28V v255 No position 1453 ttn.v3 - -104 -7.5 867.3MHz, SF9BW125, 4/5CR
2026-05-06 15:44:55 14.0625°C 62% 3.28V v255 No position 1452 ttn.v3 - -115 -10 868.1MHz, SF9BW125, 4/5CR
2026-05-06 15:29:13 14.1875°C 61.375% 3.28V v255 No position 1451 ttn.v3 - -118 -5 867.1MHz, SF9BW125, 4/5CR
2026-05-06 15:13:30 14.4375°C 59.1875% 3.28V v255 No position 1450 ttn.v3 - -93 -5.25 868.5MHz, SF9BW125, 4/5CR
2026-05-06 14:57:47 14.8125°C 56.4375% 3.28V v255 No position 1449 ttn.v3 - -105 -2 867.9MHz, SF9BW125, 4/5CR
2026-05-06 14:26:22 15.1875°C 58.5% 3.28V v255 No position 1447 ttn.v3 - -103 1.5 867.7MHz, SF9BW125, 4/5CR
2026-05-06 14:10:39 15.125°C 54.8125% 3.28V v255 No position 1446 ttn.v3 - -107 4.5 868.1MHz, SF9BW125, 4/5CR
- -110 -3 868.1MHz, SF9BW125, 4/5CR
2026-05-06 13:54:56 15.125°C 58% 3.28V v255 No position 1445 ttn.v3 - -111 -13.5 867.5MHz, SF9BW125, 4/5CR
2026-05-06 13:39:13 14.9375°C 60% 3.28V v255 No position 1444 ttn.v3 - -93 -4.75 868.5MHz, SF9BW125, 4/5CR
- -111 -7.25 868.5MHz, SF9BW125, 4/5CR
2026-05-06 13:23:30 15.1875°C 63.75% 3.28V v255 No position 1443 ttn.v3 - -104 -5.5 867.3MHz, SF9BW125, 4/5CR
- -113 -6.25 867.3MHz, SF9BW125, 4/5CR
2026-05-06 12:52:04 15.9375°C 56.1875% 3.28V v255 No position 1441 ttn.v3 - -115 -7.5 867.1MHz, SF9BW125, 4/5CR
2026-05-06 12:38:29 14.625°C 74.4375% 3.28V v255 No position 1440 ttn.v3 - -99 0 868.1MHz, SF12BW125, 4/5CR
- -111 -5 868.1MHz, SF12BW125, 4/5CR
- -134 -18.75 868.1MHz, SF12BW125, 4/5CR
2026-05-06 12:05:02 14.9375°C 65.5% 3.28V v255 52.114 / 5.1149 1438 ttn.v3 - -111 -6.25 868.5MHz, SF9BW125, 4/5CR
2026-05-06 11:49:19 16°C 60.1875% 3.28V v255 52.114 / 5.1149 1437 ttn.v3 3.336km -91 -9.75 867.7MHz, SF9BW125, 4/5CR
- -115 -13.5 867.7MHz, SF9BW125, 4/5CR
2026-05-06 11:02:10 15.875°C 55.1875% 3.28V v255 52.114 / 5.1149 1434 ttn.v3 3.336km -102 2.5 868.1MHz, SF9BW125, 4/5CR
- -112 -2.75 868.1MHz, SF9BW125, 4/5CR
2026-05-06 10:46:26 15.8125°C 53.4375% 3.28V v255 52.114 / 5.1149 1433 ttn.v3 3.336km -97 6 867.3MHz, SF9BW125, 4/5CR
- -114 -4.25 867.3MHz, SF9BW125, 4/5CR
2026-05-06 10:15:01 14.375°C 49.875% 3.28V v255 52.114 / 5.1149 1431 ttn.v3 3.336km -103 2.25 867.1MHz, SF9BW125, 4/5CR
- -113 -3.75 867.1MHz, SF9BW125, 4/5CR
- -129 -14.5 867.1MHz, SF9BW125, 4/5CR
2026-05-06 09:43:36 13.875°C 52% 3.28V v255 52.114 / 5.1149 1429 ttn.v3 3.336km -101 6 867.9MHz, SF9BW125, 4/5CR
2026-05-06 09:27:53 13.875°C 53% 3.28V v255 52.114 / 5.1149 1428 ttn.v3 3.336km -101 5.75 868.1MHz, SF9BW125, 4/5CR
- -115 -4.25 868.1MHz, SF9BW125, 4/5CR
2026-05-06 09:12:11 13.1875°C 50.9375% 3.28V v255 52.114 / 5.1149 1427 ttn.v3 3.336km -102 3.75 867.7MHz, SF9BW125, 4/5CR
2026-05-06 08:56:29 13.0625°C 48.9375% 3.28V v255 52.114 / 5.1149 1426 ttn.v3 3.336km -93 -5.25 868.5MHz, SF9BW125, 4/5CR
- -116 -12.75 868.5MHz, SF9BW125, 4/5CR
2026-05-06 08:09:23 11.625°C 50.9375% 3.27V v255 52.114 / 5.1149 1423 ttn.v3 3.336km -99 4.25 867.3MHz, SF9BW125, 4/5CR
- -112 -2 867.3MHz, SF9BW125, 4/5CR
2026-05-06 07:53:41 11.4375°C 51.625% 3.27V v255 52.114 / 5.1149 1422 ttn.v3 3.336km -104 5.25 868.1MHz, SF9BW125, 4/5CR
- -113 -0.75 868.1MHz, SF9BW125, 4/5CR
2026-05-06 07:37:59 11.1875°C 51.625% 3.27V v255 52.114 / 5.1149 1421 ttn.v3 3.336km -97 -9.5 867.1MHz, SF9BW125, 4/5CR
2026-05-06 07:22:17 10.8125°C 51.9375% 3.27V v255 52.114 / 5.1149 1420 ttn.v3 3.336km -96 -5.75 868.5MHz, SF9BW125, 4/5CR
- -110 -7.25 868.5MHz, SF9BW125, 4/5CR
2026-05-06 07:06:36 10.6875°C 52% 3.27V v255 52.114 / 5.1149 1419 ttn.v3 3.336km -104 6.25 867.9MHz, SF9BW125, 4/5CR
2026-05-06 06:50:54 10.5°C 51.9375% 3.27V v255 52.114 / 5.1149 1418 ttn.v3 3.336km -89 -10.5 868.3MHz, SF9BW125, 4/5CR
2026-05-06 06:35:12 10.375°C 52% 3.27V v255 52.114 / 5.1149 1417 ttn.v3 - -116 -1 867.7MHz, SF9BW125, 4/5CR
3.336km -105 -2.25 867.7MHz, SF9BW125, 4/5CR
2026-05-06 06:19:31 10.3125°C 51.875% 3.27V v255 52.114 / 5.1149 1416 ttn.v3 3.336km -104 0.75 868.1MHz, SF9BW125, 4/5CR
- -113 0.5 868.1MHz, SF9BW125, 4/5CR
2026-05-06 06:03:49 10.25°C 51.4375% 3.27V v255 52.114 / 5.1149 1415 ttn.v3 - -111 -12.5 867.5MHz, SF9BW125, 4/5CR
2026-05-06 05:48:08 10.25°C 50.625% 3.27V v255 52.114 / 5.1149 1414 ttn.v3 3.336km -93 -6 868.5MHz, SF9BW125, 4/5CR
- -113 -8.25 868.5MHz, SF9BW125, 4/5CR

Message count: 200
Node count: 1

Messages per node

Number of messages in list aboveNodes
200

Statistics per gateway

GatewayNumber of messagesNumber of nodesNodes
1821 (3.336km)
1381
81
31 (18.452km)

Filter by dataset